Richlands, VA

4:13 AM EDT on July 23, 2017 (GMT -0400)
Tazewell County

Weather History for KJFZ - January, 2014

Change the Weather History Date:

Monday, January 6, 2014

  Actual Average (KBLF) Record (KBLF)
Temperature  
Mean Temperature 26 °F -  
Max Temperature 53 °F 40 °F 65 °F (1998)
Min Temperature -2 °F 26 °F -4 °F (2014)
Degree Days  
Heating Degree Days 39    
Moisture  
Dew Point 12 °F    
Average Humidity 76    
Maximum Humidity 93    
Minimum Humidity 55    
Precipitation  
Precipitation 0.08 in - - ()
Sea Level Pressure  
Sea Level Pressure 29.87 in    
Wind  
Wind Speed 12 mph (WNW)    
Max Wind Speed 21 mph    
Max Gust Speed 31 mph    
Visibility 5 miles    
Events Rain , Snow    
Averages and records for this station are not official NWS values.
T = Trace of Precipitation, MM = Missing Value Source: NWS Daily Summary

Daily Weather History Graph

Daily Weather History Graph

Search for Another Location

Airport or City:

Trip Planner

Search our weather history database for the weather conditions in past years. The results will help you decide how hot, cold, wet, or windy it might be!

Date:

Astronomy

Jan. 06, 2014 Rise Set
Actual Time 7:41 AM EST 5:25 PM EST
Civil Twilight 7:12 AM EST 5:54 PM EST
Nautical Twilight 6:39 AM EST 6:26 PM EST
Astronomical Twilight 6:08 AM EST 6:57 PM EST
Moon 11:04 AM EST (1/6) 11:47 PM EST (1/6)
Length of Visible Light 10h 41m
Length of Day
9h 44m
Waxing Crescent, 34% of the Moon is Illuminated
Jan 6
Waxing Crescent
Jan 7
First Quarter
Jan 15
Full
Jan 24
Last Quarter
Jan 30
New

Hourly Weather History & Observations

Time (EST) Temp. Windchill Dew Point Humidity Pressure Visibility Wind Dir Wind Speed Gust Speed Precip Events Conditions
12:15 AM 53.8 °F - 45.1 °F 73% 29.55 in 10.0 mi South 11.5 mph 26.5 mph N/A Rain Light Rain
12:35 AM 53.6 °F - 45.9 °F 75% 29.54 in 10.0 mi SSW 9.2 mph 19.6 mph N/A Rain Rain
12:55 AM 52.7 °F - 46.6 °F 80% 29.53 in 10.0 mi South 10.4 mph 20.7 mph 0.01 in Rain Light Rain
1:15 AM 52.9 °F - 46.8 °F 80% 29.56 in 10.0 mi West 19.6 mph 27.6 mph N/A Rain Light Rain
1:35 AM 43.2 °F 34.5 °F 39.6 °F 87% 29.60 in 4.0 mi WNW 20.7 mph 31.1 mph 0.06 in Rain Light Rain
1:55 AM 40.8 °F 33.7 °F 37.8 °F 89% 29.64 in 4.0 mi WNW 12.7 mph 28.8 mph 0.07 in Rain Light Rain
2:15 AM 39.2 °F 32.0 °F 36.9 °F 91% 29.67 in 5.0 mi West 11.5 mph 21.9 mph N/A Rain Light Rain
2:35 AM 37.6 °F 31.6 °F 35.1 °F 91% 29.69 in 4.0 mi West 8.1 mph 20.7 mph N/A Rain Light Rain
2:55 AM 36.0 °F 28.0 °F 33.4 °F 91% 29.70 in 1.5 mi West 11.5 mph 24.2 mph N/A Snow Light Snow
3:15 AM 35.1 °F 27.4 °F 32.9 °F 92% 29.70 in 0.8 mi West 10.4 mph 18.4 mph N/A Snow Snow
3:35 AM 34.7 °F 28.8 °F 32.5 °F 92% 29.71 in 1.5 mi West 6.9 mph - N/A Snow Light Snow
3:55 AM 34.0 °F 27.2 °F 32.0 °F 92% 29.71 in 1.0 mi WNW 8.1 mph 18.4 mph N/A Snow Light Snow
4:15 AM 32.9 °F 24.7 °F 30.9 °F 92% 29.71 in 2.0 mi WNW 10.4 mph 20.7 mph N/A Snow Light Snow
4:35 AM 32.0 °F 23.6 °F 30.2 °F 93% 29.72 in 1.2 mi WNW 10.4 mph 19.6 mph N/A Snow Light Snow
4:55 AM 31.6 °F 23.1 °F 29.1 °F 90% 29.73 in 7.0 mi WNW 10.4 mph 18.4 mph N/A Snow Light Snow
5:15 AM 30.9 °F 22.2 °F 27.3 °F 86% 29.74 in 10.0 mi WNW 10.4 mph 17.3 mph N/A   Overcast
5:35 AM 30.2 °F 20.8 °F 26.4 °F 86% 29.74 in 10.0 mi West 11.5 mph 18.4 mph N/A   Overcast
5:55 AM 29.8 °F 19.3 °F 26.4 °F 87% 29.75 in 10.0 mi WNW 13.8 mph 20.7 mph N/A   Overcast
6:15 AM 28.9 °F 18.2 °F 26.1 °F 89% 29.75 in 10.0 mi WNW 13.8 mph 24.2 mph N/A   Overcast
6:35 AM 28.0 °F 17.0 °F 24.3 °F 86% 29.76 in 10.0 mi WNW 13.8 mph 23.0 mph N/A   Overcast
6:55 AM 27.1 °F 16.9 °F 23.2 °F 85% 29.78 in 10.0 mi WNW 11.5 mph 19.6 mph N/A   Overcast
7:15 AM 26.2 °F 15.2 °F 22.1 °F 84% 29.79 in 10.0 mi West 12.7 mph 23.0 mph N/A Snow Light Snow
7:35 AM 25.3 °F 14.7 °F 20.7 °F 82% 29.81 in 7.0 mi WNW 11.5 mph 20.7 mph N/A Snow Light Snow
7:55 AM 24.4 °F 12.4 °F 20.1 °F 84% 29.82 in 3.0 mi WNW 13.8 mph 21.9 mph N/A Snow Light Snow
8:15 AM 23.2 °F 10.3 °F 18.5 °F 82% 29.83 in 2.0 mi NW 15.0 mph 24.2 mph N/A Snow Light Snow
8:35 AM 22.1 °F 11.3 °F 16.5 °F 79% 29.84 in 1.5 mi WNW 10.4 mph 23.0 mph N/A Snow Light Snow
8:55 AM 21.6 °F 12.1 °F 16.7 °F 82% 29.85 in 1.2 mi WNW 8.1 mph 17.3 mph N/A Snow Light Snow
9:15 AM 21.2 °F 10.1 °F 15.6 °F 79% 29.86 in 2.0 mi WNW 10.4 mph 21.9 mph N/A Snow Light Snow
9:35 AM 20.8 °F 13.2 °F 15.4 °F 80% 29.86 in 3.0 mi WNW 5.8 mph 16.1 mph N/A Snow Light Snow
9:55 AM 20.7 °F 11.0 °F 16.5 °F 84% 29.87 in 0.8 mi WNW 8.1 mph - N/A Snow Light Snow
10:15 AM 19.9 °F 7.3 °F 13.8 °F 77% 29.87 in 4.0 mi NW 12.7 mph 19.6 mph N/A Snow Light Snow
10:35 AM 19.9 °F 11.1 °F 14.2 °F 78% 29.87 in 2.5 mi WNW 6.9 mph - N/A Snow Light Snow
10:55 AM 19.9 °F 10.1 °F 14.9 °F 81% 29.88 in 1.0 mi NW 8.1 mph - N/A Snow Light Snow
11:15 AM 19.2 °F 9.3 °F 14.7 °F 83% 29.87 in 0.8 mi West 8.1 mph 17.3 mph N/A Snow Light Snow
11:35 AM 18.5 °F 8.4 °F 12.6 °F 78% 29.87 in 2.5 mi West 8.1 mph 16.1 mph N/A Snow Light Snow
11:55 AM 18.1 °F 5.0 °F 11.8 °F 76% 29.86 in 2.0 mi WNW 12.7 mph 20.7 mph N/A Snow Light Snow
12:15 PM 17.2 °F 3.3 °F 10.8 °F 76% 29.84 in 2.0 mi NW 13.8 mph 20.7 mph N/A Snow Light Snow
12:35 PM 16.7 °F 3.8 °F 10.2 °F 76% 29.84 in 1.8 mi NW 11.5 mph 23.0 mph N/A Snow Light Snow
12:55 PM 16.5 °F 3.6 °F 10.4 °F 77% 29.83 in 1.8 mi WNW 11.5 mph 19.6 mph N/A Snow Light Snow
1:15 PM 16.5 °F 4.3 °F 10.2 °F 76% 29.84 in 4.0 mi NW 10.4 mph - N/A Snow Light Snow
1:35 PM 16.0 °F 1.7 °F 10.0 °F 77% 29.84 in 1.2 mi WNW 13.8 mph 21.9 mph N/A Snow Light Snow
1:55 PM 15.4 °F 0.4 °F 9.0 °F 76% 29.85 in 1.5 mi WNW 15.0 mph 23.0 mph N/A Snow Light Snow
2:15 PM 15.3 °F 1.4 °F 7.5 °F 71% 29.85 in 3.0 mi WNW 12.7 mph 21.9 mph N/A Snow Light Snow
2:35 PM 12.9 °F -1.6 °F 7.2 °F 78% 29.87 in 1.0 mi NW 12.7 mph 19.6 mph N/A Snow Light Snow
2:55 PM 11.8 °F -4.8 °F 4.3 °F 72% 29.89 in 1.5 mi WNW 16.1 mph 25.3 mph N/A Snow Light Snow
3:15 PM 10.8 °F -3.6 °F 3.6 °F 73% 29.90 in 2.0 mi NW 11.5 mph 21.9 mph N/A Snow Light Snow
3:35 PM 10.6 °F -6.4 °F 2.5 °F 70% 29.91 in 4.0 mi NW 16.1 mph 24.2 mph N/A   Haze
3:55 PM 9.5 °F -7.2 °F 0.7 °F 67% 29.93 in 4.0 mi WNW 15.0 mph 26.5 mph N/A   Haze
4:15 PM 9.1 °F -4.0 °F -4.2 °F 55% 29.94 in 4.0 mi WNW 9.2 mph 24.2 mph N/A   Haze
4:35 PM 7.7 °F -7.4 °F -2.4 °F 63% 29.96 in 3.0 mi WNW 11.5 mph 20.7 mph N/A Snow Light Snow
4:55 PM 6.6 °F -8.0 °F -4.4 °F 61% 29.97 in 10.0 mi West 10.4 mph 23.0 mph N/A   Mostly Cloudy
5:15 PM 5.7 °F -9.9 °F -5.8 °F 59% 29.98 in 10.0 mi WNW 11.5 mph 19.6 mph N/A   Mostly Cloudy
5:35 PM 5.0 °F -11.6 °F -4.0 °F 66% 29.98 in 4.0 mi WNW 12.7 mph 17.3 mph N/A   Haze
5:55 PM 4.3 °F -10.9 °F -4.0 °F 69% 29.99 in 2.5 mi WNW 10.4 mph 20.7 mph N/A Snow Light Snow
6:15 PM 3.7 °F -13.2 °F -5.4 °F 66% 30.00 in 5.0 mi WNW 12.7 mph 19.6 mph N/A   Haze
6:35 PM 3.0 °F -12.5 °F -5.8 °F 67% 30.01 in 10.0 mi NW 10.4 mph 17.3 mph N/A   Overcast
6:55 PM 3.2 °F -12.2 °F -5.3 °F 68% 30.03 in 5.0 mi WNW 10.4 mph 20.7 mph N/A   Haze
7:15 PM 2.5 °F -12.2 °F -6.0 °F 68% 30.03 in 5.0 mi WNW 9.2 mph 18.4 mph N/A Snow Light Snow
7:35 PM 2.1 °F -13.6 °F -6.5 °F 67% 30.04 in 7.0 mi WNW 10.4 mph 18.4 mph N/A   Overcast
7:55 PM 1.9 °F -12.9 °F -5.6 °F 71% 30.04 in 3.0 mi WNW 9.2 mph - N/A Snow Light Snow
8:15 PM 1.9 °F -12.9 °F -4.9 °F 73% 30.05 in 3.0 mi WNW 9.2 mph - N/A Snow Light Snow
8:35 PM 1.8 °F -15.7 °F -5.1 °F 73% 30.06 in 2.5 mi West 12.7 mph 18.4 mph N/A Snow Light Snow
8:55 PM 0.5 °F -14.6 °F -9.9 °F 62% 30.07 in 7.0 mi West 9.2 mph 24.2 mph N/A   Mostly Cloudy
9:15 PM 0.1 °F -20.5 °F -12.1 °F 56% 30.08 in 7.0 mi WNW 17.3 mph 26.5 mph N/A   Mostly Cloudy
9:35 PM -0.4 °F -19.2 °F -12.3 °F 57% 30.09 in 10.0 mi WNW 13.8 mph 19.6 mph N/A   Scattered Clouds
9:55 PM -0.8 °F -16.2 °F -12.5 °F 58% 30.10 in 10.0 mi WNW 9.2 mph 23.0 mph N/A   Scattered Clouds
10:15 PM -1.3 °F -16.8 °F -12.5 °F 59% 30.10 in 10.0 mi WNW 9.2 mph 16.1 mph N/A   Clear
10:35 PM -1.5 °F -18.1 °F -11.2 °F 63% 30.10 in 10.0 mi WNW 10.4 mph 17.3 mph N/A   Mostly Cloudy
10:55 PM -1.7 °F -18.3 °F -9.2 °F 70% 30.10 in 3.0 mi WNW 10.4 mph 17.3 mph N/A   Haze
11:15 PM -1.5 °F -20.5 °F -8.5 °F 72% 30.09 in 4.0 mi West 13.8 mph 19.6 mph N/A   Haze
11:35 PM -1.5 °F -20.5 °F -10.1 °F 67% 30.10 in 5.0 mi West 13.8 mph 18.4 mph N/A   Haze
11:55 PM -2.2 °F -16.8 °F -11.2 °F 66% 30.11 in 10.0 mi West 8.1 mph 20.7 mph N/A   Overcast